ADDS METAR Data INFO
IDs: Format: Raw Decoded Include TAF

Data at: 1845 UTC 17 Oct 2017

METAR for:TJSJ (San Juan/Marin Intl, PR, US)
Text:TJSJ 171756Z 09014KT 9SM FEW042 SCT050 BKN060 31/27 A2995 RMK AO2 SLP140 HZ ALQDS T03110272 10317 20272 56023
Temperature: 31.1°C ( 88°F)
Dewpoint: 27.2°C ( 81°F) [RH = 80%]
Pressure (altimeter):29.95 inches Hg (1014.3 mb) [Sea level pressure: 1014.0 mb]
Winds:from the E (90 degrees) at 16 MPH (14 knots; 7.2 m/s)
Visibility: 9 sm ( 14 km)
Ceiling:6000 feet AGL
Clouds: few clouds at 4200 feet AGL, scattered clouds at 5000 feet AGL, broken clouds at 6000 feet AGL